Time;durP1;ratioP1;P1;durP2;ratioP2;P2;SDS_P1;SDS_P2;PMS_P1;PMS_P2;Temp;Humidity;BMP_temperature;BMP_pressure;BME280_temperature;BME280_humidity;BME280_pressure;Samples;Min_cycle;Max_cycle;Signal;HPM_P1;HPM_P2
2023/08/13 00:00:06;;;;;;;16.10;3.90;;;;;;;16.76;90.82;101560.09;5112970;28;20050;-80
2023/08/13 00:02:31;;;;;;;13.55;4.05;;;;;;;16.76;91.37;101553.78;5112643;28;20027;-80
2023/08/13 00:04:57;;;;;;;16.80;4.05;;;;;;;16.74;91.38;101559.34;5112281;28;20042;-80
2023/08/13 00:07:22;;;;;;;16.52;4.30;;;;;;;16.73;92.85;101557.63;5112730;28;20503;-80
2023/08/13 00:09:47;;;;;;;17.58;4.18;;;;;;;16.70;92.31;101555.16;5123696;28;20023;-80
2023/08/13 00:12:13;;;;;;;16.67;4.32;;;;;;;16.71;92.64;101551.47;5116242;28;20027;-80
2023/08/13 00:14:38;;;;;;;14.10;3.70;;;;;;;16.67;93.42;101557.31;5109178;28;20485;-80
2023/08/13 00:17:04;;;;;;;14.07;3.97;;;;;;;16.66;94.21;101553.75;5114872;28;20050;-80
2023/08/13 00:19:30;;;;;;;14.20;4.03;;;;;;;16.61;94.80;101550.56;5121527;28;20468;-80
2023/08/13 00:21:55;;;;;;;15.38;4.10;;;;;;;16.55;93.55;101549.25;5114523;28;20027;-80
2023/08/13 00:24:21;;;;;;;11.15;3.53;;;;;;;16.54;93.87;101541.25;5112828;28;20020;-80
2023/08/13 00:26:46;;;;;;;8.80;3.13;;;;;;;16.51;94.10;101541.50;5111711;28;20035;-81
2023/08/13 00:29:11;;;;;;;14.05;4.05;;;;;;;16.46;94.99;101536.50;5114988;28;20028;-80
2023/08/13 00:31:37;;;;;;;13.23;3.83;;;;;;;16.42;95.64;101541.31;5112975;28;20116;-80
2023/08/13 00:34:02;;;;;;;15.48;4.22;;;;;;;16.36;95.01;101547.28;5112438;28;20034;-80
2023/08/13 00:36:27;;;;;;;19.92;4.22;;;;;;;16.33;95.40;101547.56;5115070;28;20070;-80
2023/08/13 00:38:53;;;;;;;13.00;3.65;;;;;;;16.29;96.07;101542.53;5118716;28;20176;-80
2023/08/13 00:41:18;;;;;;;18.38;4.78;;;;;;;16.28;95.72;101541.66;5116046;28;20027;-80
2023/08/13 00:43:43;;;;;;;20.77;4.30;;;;;;;16.25;96.30;101533.78;5113548;28;20035;-80
2023/08/13 00:46:10;;;;;;;17.30;4.30;;;;;;;16.23;96.15;101536.63;5109659;28;20059;-79
2023/08/13 00:48:39;;;;;;;16.05;4.35;;;;;;;16.23;96.62;101538.50;5112262;28;20023;-80
2023/08/13 00:51:06;;;;;;;17.10;4.35;;;;;;;16.23;96.95;101538.50;5117734;28;20032;-80
2023/08/13 00:53:42;;;;;;;15.50;4.15;;;;;;;16.20;96.92;101536.03;5110762;28;20055;-80
2023/08/13 00:56:08;;;;;;;15.25;4.10;;;;;;;16.20;96.82;101531.47;5111083;28;20028;-80
2023/08/13 00:58:33;;;;;;;13.82;3.58;;;;;;;16.16;97.21;101538.16;5119289;28;20063;-80
2023/08/13 01:00:59;;;;;;;15.13;4.18;;;;;;;16.14;96.31;101534.72;5111859;28;20073;-82
2023/08/13 01:03:24;;;;;;;17.13;3.65;;;;;;;16.13;97.08;101534.84;5102794;28;20127;-82
2023/08/13 01:06:10;;;;;;;13.25;3.50;;;;;;;16.10;96.92;101533.25;5104595;28;20064;-82
2023/08/13 01:08:56;;;;;;;19.98;4.07;;;;;;;16.10;97.83;101541.38;5117823;28;20411;-80
2023/08/13 01:11:29;;;;;;;17.38;3.63;;;;;;;16.06;98.48;101543.53;5117005;28;20043;-80
2023/08/13 01:14:08;;;;;;;11.93;3.45;;;;;;;16.01;98.36;101534.91;5110676;28;20061;-80
2023/08/13 01:16:35;;;;;;;13.40;3.55;;;;;;;16.01;98.50;101534.06;5114801;28;20023;-80
2023/08/13 01:19:00;;;;;;;14.07;3.95;;;;;;;15.95;99.46;101542.72;5115999;28;20126;-80
2023/08/13 01:21:26;;;;;;;18.38;4.10;;;;;;;15.91;99.30;101547.53;5124546;28;20011;-80
2023/08/13 01:23:53;;;;;;;17.15;4.20;;;;;;;15.93;98.98;101547.41;5115524;28;20115;-80
2023/08/13 01:26:25;;;;;;;16.70;4.38;;;;;;;15.92;99.00;101548.41;5110303;28;20032;-80
2023/08/13 01:29:00;;;;;;;19.25;4.47;;;;;;;15.93;98.77;101552.81;5112539;28;20028;-80
2023/08/13 01:31:30;;;;;;;18.00;3.80;;;;;;;15.89;98.82;101542.25;5120269;28;20042;-80
2023/08/13 01:33:58;;;;;;;14.18;4.05;;;;;;;15.90;99.11;101541.25;5104659;28;20031;-80
2023/08/13 01:36:25;;;;;;;13.07;3.58;;;;;;;15.89;98.81;101550.38;5112772;28;20035;-80
2023/08/13 01:38:52;;;;;;;23.10;4.30;;;;;;;15.91;98.93;101539.41;5111398;28;20019;-80
2023/08/13 01:41:18;;;;;;;13.20;3.40;;;;;;;15.89;98.81;101544.09;5116318;28;20030;-80
2023/08/13 01:43:43;;;;;;;15.25;3.45;;;;;;;15.92;98.62;101543.84;5111506;28;20023;-79
2023/08/13 01:46:09;;;;;;;15.10;3.75;;;;;;;15.89;98.68;101546.81;5110815;28;20035;-80
2023/08/13 01:48:34;;;;;;;15.60;3.92;;;;;;;15.90;99.00;101543.09;5114311;28;20038;-81
2023/08/13 01:50:59;;;;;;;16.55;3.75;;;;;;;15.92;99.00;101545.69;5114493;28;20024;-80
2023/08/13 01:53:25;;;;;;;11.15;3.60;;;;;;;15.90;98.73;101543.97;5110811;28;20074;-80
2023/08/13 01:55:50;;;;;;;13.27;4.07;;;;;;;15.92;98.92;101546.53;5111550;28;20028;-80
2023/08/13 01:58:15;;;;;;;13.43;3.33;;;;;;;15.87;98.71;101543.34;5109724;28;20070;-80
2023/08/13 02:00:41;;;;;;;17.67;3.70;;;;;;;15.90;99.16;101543.09;5109524;28;20035;-80
2023/08/13 02:03:06;;;;;;;13.73;3.45;;;;;;;15.90;98.80;101543.09;5109920;28;20027;-80
2023/08/13 02:05:31;;;;;;;11.32;3.30;;;;;;;15.89;99.16;101534.09;5109429;28;20028;-80
2023/08/13 02:07:57;;;;;;;13.93;3.13;;;;;;;15.87;99.59;101543.34;5109970;28;20058;-80
2023/08/13 02:10:23;;;;;;;16.33;3.85;;;;;;;15.89;99.08;101535.97;5110401;28;20031;-80
2023/08/13 02:12:48;;;;;;;16.20;3.83;;;;;;;15.88;99.01;101536.94;5118496;28;20550;-80
2023/08/13 02:15:13;;;;;;;16.83;3.30;;;;;;;15.88;98.91;101540.50;5110634;28;20031;-80
2023/08/13 02:17:38;;;;;;;15.25;3.53;;;;;;;15.90;99.29;101537.66;5107824;28;20030;-82
2023/08/13 02:20:05;;;;;;;19.83;3.55;;;;;;;15.86;99.50;101531.66;5102280;28;20397;-82
2023/08/13 02:22:31;;;;;;;10.68;3.13;;;;;;;15.86;99.63;101528.94;5102682;28;20096;-82
2023/08/13 02:24:56;;;;;;;14.43;4.00;;;;;;;15.87;100.00;101529.78;5099231;28;20414;-82
2023/08/13 02:27:23;;;;;;;17.63;4.05;;;;;;;15.83;100.00;101531.91;5083035;28;20122;-82
2023/08/13 02:29:48;;;;;;;15.93;3.35;;;;;;;15.81;100.00;101528.50;5102279;28;20032;-82
2023/08/13 02:32:13;;;;;;;16.55;3.67;;;;;;;15.83;100.00;101531.06;5105808;28;20070;-82
2023/08/13 02:34:44;;;;;;;11.95;2.90;;;;;;;15.82;100.00;101529.34;5104067;28;20054;-82
2023/08/13 02:37:09;;;;;;;16.67;3.72;;;;;;;15.79;100.00;101524.19;5100690;28;20046;-82
2023/08/13 02:39:35;;;;;;;14.75;3.45;;;;;;;15.78;100.00;101519.72;5099217;28;20110;-82
2023/08/13 02:42:00;;;;;;;14.50;3.33;;;;;;;15.76;100.00;101521.72;5107064;28;20557;-82
2023/08/13 02:44:26;;;;;;;12.02;2.90;;;;;;;15.75;100.00;101525.41;5102387;28;20482;-81
2023/08/13 02:46:52;;;;;;;10.52;3.47;;;;;;;15.73;100.00;101520.09;5103848;28;20055;-82
2023/08/13 02:49:17;;;;;;;11.55;3.42;;;;;;;15.70;100.00;101521.22;5099086;28;20020;-82
2023/08/13 02:51:42;;;;;;;12.73;3.10;;;;;;;15.68;100.00;101520.50;5099114;28;20028;-82
2023/08/13 02:54:08;;;;;;;16.38;3.60;;;;;;;15.65;100.00;101520.75;5109112;28;20382;-82
2023/08/13 02:56:33;;;;;;;16.25;3.25;;;;;;;15.64;100.00;101520.91;5098413;28;20402;-82
2023/08/13 02:58:58;;;;;;;17.95;4.05;;;;;;;15.59;100.00;101523.97;5099029;28;20052;-82
2023/08/13 03:01:24;;;;;;;12.98;3.67;;;;;;;15.55;100.00;101517.97;5106414;28;20031;-82
2023/08/13 03:03:52;;;;;;;12.38;3.58;;;;;;;15.52;100.00;101511.91;5110655;28;20036;-82
2023/08/13 03:06:18;;;;;;;18.83;3.33;;;;;;;15.47;100.00;101508.75;5102664;28;20081;-81
2023/08/13 03:08:43;;;;;;;14.18;3.38;;;;;;;15.45;100.00;101514.31;5100302;28;20031;-82
2023/08/13 03:11:08;;;;;;;16.38;3.80;;;;;;;15.41;100.00;101512.84;5105611;28;20031;-82
2023/08/13 03:13:34;;;;;;;8.30;2.72;;;;;;;15.42;100.00;101519.09;5109866;28;20034;-82
2023/08/13 03:15:59;;;;;;;14.35;3.70;;;;;;;15.36;100.00;101518.63;5098996;28;20016;-82
2023/08/13 03:18:24;;;;;;;14.40;3.63;;;;;;;15.35;100.00;101516.91;5102773;28;20035;-81
2023/08/13 03:20:50;;;;;;;11.40;3.05;;;;;;;15.33;100.00;101515.31;5104431;28;20046;-82
2023/08/13 03:23:15;;;;;;;11.25;3.35;;;;;;;15.31;100.00;101518.13;5111762;28;20080;-81
2023/08/13 03:25:40;;;;;;;8.35;2.83;;;;;;;15.28;100.00;101514.84;5105346;28;20020;-82
2023/08/13 03:28:06;;;;;;;10.65;3.53;;;;;;;15.25;100.00;101520.50;5109741;28;20122;-82
2023/08/13 03:30:31;;;;;;;13.07;3.53;;;;;;;15.20;100.00;101519.03;5105584;28;20483;-81
2023/08/13 03:32:56;;;;;;;14.98;4.18;;;;;;;15.22;100.00;101520.78;5104663;28;20394;-82
2023/08/13 03:35:22;;;;;;;13.77;3.35;;;;;;;15.21;100.00;101517.19;5109786;28;20498;-82
2023/08/13 03:37:47;;;;;;;13.43;3.38;;;;;;;15.19;100.00;101519.16;5103098;28;20533;-82
2023/08/13 03:40:12;;;;;;;16.98;3.75;;;;;;;15.21;100.00;101509.06;5105930;28;20016;-82
2023/08/13 03:42:38;;;;;;;13.25;3.47;;;;;;;15.20;100.00;101510.91;5107805;28;20696;-82
2023/08/13 03:45:05;;;;;;;8.48;2.97;;;;;;;15.16;100.00;101512.16;5113084;28;20403;-82
2023/08/13 03:47:30;;;;;;;12.48;3.85;;;;;;;15.14;100.00;101514.13;5103559;28;20114;-82
2023/08/13 03:49:55;;;;;;;13.48;3.60;;;;;;;15.18;100.00;101514.72;5102107;28;20043;-82
2023/08/13 03:52:21;;;;;;;11.95;3.90;;;;;;;15.17;100.00;101516.59;5107234;28;20088;-82
2023/08/13 03:54:46;;;;;;;11.18;3.30;;;;;;;15.18;100.00;101515.63;5110896;28;20020;-82
2023/08/13 03:57:11;;;;;;;14.63;3.05;;;;;;;15.21;100.00;101525.31;5113803;28;20048;-82
2023/08/13 03:59:37;;;;;;;15.95;3.20;;;;;;;15.21;100.00;101525.31;5105016;28;20437;-82
2023/08/13 04:02:02;;;;;;;15.57;3.95;;;;;;;15.23;100.00;101526.06;5104548;28;20455;-82
2023/08/13 04:04:27;;;;;;;11.52;3.35;;;;;;;15.22;100.00;101520.78;5113635;28;20034;-82
2023/08/13 04:06:53;;;;;;;10.95;3.65;;;;;;;15.21;100.00;101519.88;5108991;28;20028;-82
2023/08/13 04:09:18;;;;;;;14.02;4.05;;;;;;;15.23;100.00;101525.19;5103668;28;20101;-81
2023/08/13 04:11:44;;;;;;;15.25;4.47;;;;;;;15.21;100.00;101530.72;5111151;28;20702;-82
2023/08/13 04:14:09;;;;;;;16.50;3.67;;;;;;;15.23;100.00;101528.75;5106570;28;20502;-82
2023/08/13 04:16:35;;;;;;;18.02;4.28;;;;;;;15.22;100.00;101524.31;5104460;28;20032;-82
2023/08/13 04:19:00;;;;;;;14.60;4.10;;;;;;;15.22;100.00;101535.16;5101885;28;20146;-81
2023/08/13 04:21:25;;;;;;;17.05;4.57;;;;;;;15.25;100.00;101532.19;5101550;28;20024;-82
2023/08/13 04:23:58;;;;;;;15.27;3.70;;;;;;;15.24;100.00;101530.47;5110131;28;20020;-81
2023/08/13 04:26:24;;;;;;;14.95;3.92;;;;;;;15.20;100.00;101529.88;5112497;28;20035;-82
2023/08/13 04:28:49;;;;;;;19.42;4.57;;;;;;;15.22;100.00;101529.75;5101929;28;20028;-82
2023/08/13 04:31:16;;;;;;;11.77;3.90;;;;;;;15.23;100.00;101528.75;5102843;28;20038;-82
2023/08/13 04:33:42;;;;;;;16.63;3.95;;;;;;;15.23;100.00;101530.59;5101964;28;20035;-82
2023/08/13 04:36:07;;;;;;;15.77;4.35;;;;;;;15.19;100.00;101530.00;5113210;28;20428;-82
2023/08/13 04:38:33;;;;;;;14.82;3.60;;;;;;;15.20;100.00;101520.91;5106210;28;20028;-77
2023/08/13 04:40:58;;;;;;;17.52;4.55;;;;;;;15.22;100.00;101526.19;5102832;28;20023;-77
2023/08/13 04:43:23;;;;;;;15.63;3.75;;;;;;;15.21;100.00;101528.00;5104747;28;20514;-77
2023/08/13 04:45:49;;;;;;;17.25;3.65;;;;;;;15.22;100.00;101532.44;5108425;28;20051;-77
2023/08/13 04:48:38;;;;;;;13.32;3.63;;;;;;;15.23;100.00;101536.88;5109728;28;20028;-77
2023/08/13 04:51:03;;;;;;;16.17;4.25;;;;;;;15.22;100.00;101537.03;5104193;28;20031;-77
2023/08/13 04:53:28;;;;;;;13.15;3.92;;;;;;;15.24;100.00;101537.75;5103911;28;20424;-77
2023/08/13 04:55:54;;;;;;;14.88;4.30;;;;;;;15.23;100.00;101536.00;5108516;28;20035;-77
2023/08/13 04:58:19;;;;;;;14.38;4.28;;;;;;;15.26;100.00;101525.81;5103044;28;20062;-77
2023/08/13 05:00:44;;;;;;;14.20;4.10;;;;;;;15.29;100.00;101533.66;5105295;28;20096;-77
2023/08/13 05:03:09;;;;;;;17.38;4.22;;;;;;;15.30;100.00;101529.09;5107879;28;20114;-77
2023/08/13 05:05:35;;;;;;;16.17;4.43;;;;;;;15.32;100.00;101528.00;5105863;28;20102;-77
2023/08/13 05:08:00;;;;;;;14.48;4.03;;;;;;;15.32;100.00;101517.16;5111248;28;20051;-77
2023/08/13 05:10:25;;;;;;;18.40;4.07;;;;;;;15.36;100.00;101518.63;5113828;28;20023;-77
2023/08/13 05:12:51;;;;;;;16.02;4.00;;;;;;;15.40;100.00;101512.97;5105294;28;20032;-77
2023/08/13 05:15:16;;;;;;;17.48;4.03;;;;;;;15.42;100.00;101519.09;5105216;28;20050;-77
2023/08/13 05:17:41;;;;;;;18.55;4.07;;;;;;;15.43;100.00;101518.97;5111386;28;20380;-77
2023/08/13 05:20:07;;;;;;;16.67;4.55;;;;;;;15.46;100.00;101517.84;5113250;28;20423;-77
2023/08/13 05:22:33;;;;;;;12.75;4.05;;;;;;;15.48;100.00;101522.16;5109037;28;20038;-77
2023/08/13 05:24:58;;;;;;;18.17;4.47;;;;;;;15.51;100.00;101526.47;5100564;28;20032;-77
2023/08/13 05:27:23;;;;;;;17.30;3.78;;;;;;;15.53;100.00;101532.63;5102628;28;20476;-77
2023/08/13 05:29:49;;;;;;;20.58;4.88;;;;;;;15.52;100.00;101531.75;5102200;28;20032;-77
2023/08/13 05:32:14;;;;;;;20.33;5.10;;;;;;;15.56;100.00;101529.66;5103598;28;20080;-77
2023/08/13 05:34:39;;;;;;;14.98;4.00;;;;;;;15.59;100.00;101532.09;5104114;28;20031;-77
2023/08/13 05:37:05;;;;;;;21.13;4.80;;;;;;;15.61;100.00;101532.84;5110011;28;20031;-77
2023/08/13 05:39:30;;;;;;;15.73;4.60;;;;;;;15.61;100.00;101535.56;5112429;28;20024;-77
2023/08/13 05:41:56;;;;;;;15.20;4.30;;;;;;;15.63;100.00;101536.28;5102213;28;20513;-77
2023/08/13 05:44:21;;;;;;;16.83;4.38;;;;;;;15.63;100.00;101536.28;5103248;28;20028;-77
2023/08/13 05:46:46;;;;;;;21.17;5.72;;;;;;;15.64;100.00;101543.41;5102275;28;20023;-77
2023/08/13 05:49:12;;;;;;;16.58;4.35;;;;;;;15.68;100.00;101544.00;5110309;28;20515;-77
2023/08/13 05:51:37;;;;;;;16.52;5.35;;;;;;;15.70;100.00;101547.47;5107649;28;20062;-77
2023/08/13 05:54:03;;;;;;;20.25;5.15;;;;;;;15.73;100.00;101545.34;5105005;28;20447;-77
2023/08/13 05:56:28;;;;;;;14.27;4.03;;;;;;;15.78;100.00;101550.41;5112665;28;20038;-76
2023/08/13 05:58:53;;;;;;;14.15;4.32;;;;;;;15.83;100.00;101540.06;5104888;28;20023;-76
2023/08/13 06:01:18;;;;;;;16.80;4.97;;;;;;;15.88;100.00;101547.78;5110636;28;20041;-76
2023/08/13 06:03:44;;;;;;;15.55;4.38;;;;;;;15.94;100.00;101544.56;5110792;28;20051;-76
2023/08/13 06:06:10;;;;;;;20.92;4.75;;;;;;;15.95;100.00;101549.00;5111529;28;20106;-75
2023/08/13 06:08:35;;;;;;;16.00;4.38;;;;;;;16.04;100.00;101552.78;5109312;28;20068;-75
2023/08/13 06:11:00;;;;;;;18.52;4.43;;;;;;;16.10;100.00;101559.53;5109872;28;20045;-75
2023/08/13 06:13:26;;;;;;;17.73;4.70;;;;;;;16.16;100.00;101550.84;5107569;28;20023;-75
2023/08/13 06:15:51;;;;;;;16.63;4.55;;;;;;;16.19;100.00;101551.47;5111291;28;20047;-74
2023/08/13 06:18:17;;;;;;;18.23;3.97;;;;;;;16.26;100.00;101543.66;5108494;28;20039;-74
2023/08/13 06:20:42;;;;;;;22.02;4.70;;;;;;;16.30;100.00;101539.69;5109287;28;20023;-75
2023/08/13 06:23:08;;;;;;;18.00;4.72;;;;;;;16.34;100.00;101543.84;5111079;28;20030;-75
2023/08/13 06:25:33;;;;;;;17.20;4.03;;;;;;;16.39;100.00;101546.16;5111267;28;20069;-75
2023/08/13 06:27:58;;;;;;;16.60;4.25;;;;;;;16.41;100.00;101547.75;5110756;28;20106;-76
2023/08/13 06:30:24;;;;;;;19.75;4.85;;;;;;;16.48;100.00;101548.06;5106852;28;20463;-77
2023/08/13 06:32:49;;;;;;;14.52;4.20;;;;;;;16.52;100.00;101545.94;5108185;28;20023;-76
2023/08/13 06:35:15;;;;;;;17.88;4.47;;;;;;;16.56;100.00;101548.25;5110121;28;20046;-79
2023/08/13 06:37:40;;;;;;;19.38;4.32;;;;;;;16.60;100.00;101547.00;5111127;28;20161;-78
2023/08/13 06:40:07;;;;;;;15.50;4.40;;;;;;;16.68;100.00;101546.31;5111188;28;20023;-77
2023/08/13 06:42:32;;;;;;;15.73;4.32;;;;;;;16.75;100.00;101546.63;5111339;28;20034;-77
2023/08/13 06:44:57;;;;;;;16.63;3.97;;;;;;;16.82;100.00;101552.38;5110583;28;20419;-78
2023/08/13 06:47:23;;;;;;;19.00;4.65;;;;;;;16.85;100.00;101557.53;5109157;28;20467;-76
2023/08/13 06:49:48;;;;;;;17.48;4.72;;;;;;;16.89;100.00;101551.72;5111061;28;20031;-75
2023/08/13 06:52:13;;;;;;;17.40;4.22;;;;;;;16.94;100.00;101556.72;5110361;28;20473;-74
2023/08/13 06:54:38;;;;;;;14.90;3.55;;;;;;;16.96;100.00;101546.59;5114754;28;20103;-76
2023/08/13 06:57:04;;;;;;;15.52;4.57;;;;;;;17.02;100.00;101545.22;5115245;28;20462;-78
2023/08/13 06:59:29;;;;;;;12.93;3.72;;;;;;;17.06;100.00;101547.50;5113709;28;20046;-76
2023/08/13 07:01:55;;;;;;;11.30;3.60;;;;;;;17.09;100.00;101547.22;5115029;28;20020;-77
2023/08/13 07:04:20;;;;;;;19.17;4.60;;;;;;;17.17;100.00;101545.69;5112357;28;20042;-75
2023/08/13 07:06:45;;;;;;;16.02;4.13;;;;;;;17.22;100.00;101543.38;5112712;28;20035;-76
2023/08/13 07:09:11;;;;;;;16.45;4.00;;;;;;;17.27;100.00;101546.56;5114929;28;20140;-75
2023/08/13 07:11:36;;;;;;;19.55;4.78;;;;;;;17.30;100.00;101549.00;5112688;28;20084;-75
2023/08/13 07:14:05;;;;;;;15.32;4.07;;;;;;;17.36;100.00;101547.56;5113702;28;20149;-75
2023/08/13 07:16:30;;;;;;;11.82;4.00;;;;;;;17.40;100.00;101547.16;5113355;28;20015;-74
2023/08/13 07:18:56;;;;;;;11.82;3.92;;;;;;;17.46;100.00;101543.88;5114344;28;20031;-74
2023/08/13 07:21:22;;;;;;;18.23;4.20;;;;;;;17.52;100.00;101542.44;5113810;28;20012;-74
2023/08/13 07:23:47;;;;;;;14.88;4.00;;;;;;;17.57;100.00;101537.47;5114505;28;20032;-75
2023/08/13 07:26:13;;;;;;;18.17;4.68;;;;;;;17.63;100.00;101539.59;5113169;28;20475;-74
2023/08/13 07:28:40;;;;;;;17.00;4.38;;;;;;;17.67;100.00;101540.16;5111280;28;20805;-74
2023/08/13 07:31:05;;;;;;;16.38;3.90;;;;;;;17.72;100.00;101543.34;5114517;28;20118;-74
2023/08/13 07:33:31;;;;;;;14.05;3.70;;;;;;;17.78;100.00;101545.47;5112778;28;20111;-74
2023/08/13 07:35:59;;;;;;;18.75;4.05;;;;;;;17.84;100.00;101544.06;5112764;28;20026;-75
2023/08/13 07:38:24;;;;;;;13.93;3.58;;;;;;;17.91;100.00;101541.66;5107891;28;20034;-74
2023/08/13 07:40:51;;;;;;;14.13;3.63;;;;;;;17.97;100.00;101541.94;5112684;28;20045;-75
2023/08/13 07:43:17;;;;;;;18.15;4.00;;;;;;;18.03;100.00;101543.22;5110011;28;20027;-76
2023/08/13 07:45:42;;;;;;;13.13;3.92;;;;;;;18.08;100.00;101549.09;5114681;28;20491;-76
2023/08/13 07:48:08;;;;;;;16.92;4.35;;;;;;;18.13;100.00;101545.94;5112724;28;20035;-75
2023/08/13 07:50:34;;;;;;;14.25;3.55;;;;;;;18.16;100.00;101546.50;5130041;28;20029;-79
2023/08/13 07:52:59;;;;;;;15.27;4.10;;;;;;;18.23;100.00;101540.47;5126049;28;20410;-77
2023/08/13 07:55:24;;;;;;;15.75;3.47;;;;;;;18.27;100.00;101534.59;5112145;28;20087;-77
2023/08/13 07:57:50;;;;;;;14.15;3.67;;;;;;;18.35;100.00;101533.88;5112231;28;20023;-81
2023/08/13 08:00:16;;;;;;;18.55;3.97;;;;;;;18.37;100.00;101534.56;5111822;28;20036;-75
2023/08/13 08:02:42;;;;;;;19.02;4.15;;;;;;;18.43;100.00;101530.41;5112890;28;20498;-75
2023/08/13 08:05:08;;;;;;;10.88;3.17;;;;;;;18.48;100.00;101528.94;5120628;28;20035;-78
2023/08/13 08:07:34;;;;;;;18.35;3.95;;;;;;;18.52;100.00;101530.38;5106599;28;20035;-77
2023/08/13 08:10:00;;;;;;;12.77;2.95;;;;;;;18.56;99.16;101532.81;5112913;28;20024;-80
2023/08/13 08:12:25;;;;;;;13.85;3.33;;;;;;;18.61;98.70;101536.81;5105489;28;20447;-80
2023/08/13 08:14:50;;;;;;;10.73;2.78;;;;;;;18.64;98.56;101528.34;5100201;28;20027;-80
2023/08/13 08:17:16;;;;;;;14.10;3.50;;;;;;;18.67;98.00;101536.19;5112442;28;20478;-81
2023/08/13 08:19:41;;;;;;;20.85;4.18;;;;;;;18.68;95.22;101534.31;5102656;28;20379;-81
2023/08/13 08:22:06;;;;;;;11.55;3.10;;;;;;;18.69;97.22;101536.91;5101286;28;20031;-81
2023/08/13 08:24:32;;;;;;;15.57;3.60;;;;;;;18.73;97.68;101528.44;5102250;28;20100;-81
2023/08/13 08:26:58;;;;;;;14.60;3.90;;;;;;;18.76;98.35;101533.59;5107978;28;20024;-80
2023/08/13 08:29:24;;;;;;;16.08;3.47;;;;;;;18.78;98.37;101534.28;5105823;28;20056;-81
2023/08/13 08:31:51;;;;;;;16.10;3.83;;;;;;;18.80;95.87;101530.41;5105166;28;20024;-81
2023/08/13 08:34:16;;;;;;;11.15;3.45;;;;;;;18.84;95.07;101536.41;5105760;28;20106;-81
2023/08/13 08:36:41;;;;;;;12.50;3.50;;;;;;;18.90;97.49;101522.22;5109554;28;20103;-80
2023/08/13 08:39:07;;;;;;;13.02;3.33;;;;;;;18.93;96.65;101527.38;5101337;28;20076;-80
2023/08/13 08:41:35;;;;;;;11.50;3.30;;;;;;;18.99;96.19;101531.34;5101526;28;20119;-82
2023/08/13 08:44:01;;;;;;;10.40;2.60;;;;;;;19.01;95.96;101518.44;5104137;28;20118;-80
2023/08/13 08:46:30;;;;;;;19.40;3.58;;;;;;;19.08;95.83;101525.00;5104508;28;20443;-81
2023/08/13 08:48:56;;;;;;;11.70;3.58;;;;;;;19.12;96.14;101526.44;5112665;28;20031;-81
2023/08/13 08:51:22;;;;;;;13.75;3.53;;;;;;;19.20;97.07;101529.22;5105565;28;20484;-81
2023/08/13 08:53:49;;;;;;;9.05;2.80;;;;;;;19.26;91.92;101529.66;5104378;28;20035;-81
2023/08/13 08:56:15;;;;;;;11.15;3.22;;;;;;;19.29;92.07;101527.47;5104573;28;20023;-81
2023/08/13 08:58:40;;;;;;;13.95;3.55;;;;;;;19.34;92.67;101521.53;5100953;28;20538;-81
2023/08/13 09:01:06;;;;;;;13.35;3.17;;;;;;;19.37;91.80;101515.78;5101212;28;20435;-81
2023/08/13 09:03:32;;;;;;;16.92;3.60;;;;;;;19.45;91.22;101515.88;5105269;28;20025;-81
2023/08/13 09:05:57;;;;;;;15.45;4.15;;;;;;;19.49;90.56;101514.56;5106799;28;20123;-81
2023/08/13 09:08:22;;;;;;;14.48;3.50;;;;;;;19.52;89.89;101507.94;5111051;28;20024;-81
2023/08/13 09:10:48;;;;;;;13.38;3.05;;;;;;;19.56;92.00;101506.59;5112124;28;20020;-81
2023/08/13 09:13:13;;;;;;;17.30;4.43;;;;;;;19.59;87.04;101505.44;5104188;28;20399;-80
2023/08/13 09:15:43;;;;;;;14.30;3.28;;;;;;;19.63;86.98;101512.31;5101956;28;20028;-80
2023/08/13 09:18:10;;;;;;;13.10;3.67;;;;;;;19.65;88.53;101499.34;5111637;28;20035;-78
2023/08/13 09:20:48;;;;;;;13.73;3.55;;;;;;;19.73;90.53;101496.72;5104148;28;20028;-78
2023/08/13 09:23:24;;;;;;;8.77;2.67;;;;;;;19.76;88.96;101499.13;5103777;28;20059;-78
2023/08/13 09:25:54;;;;;;;14.98;3.40;;;;;;;19.77;87.15;101498.13;5100257;28;20486;-78
2023/08/13 09:28:19;;;;;;;15.02;3.38;;;;;;;19.80;86.17;101497.84;5107783;28;20027;-78
2023/08/13 09:30:45;;;;;;;13.88;3.40;;;;;;;19.83;85.22;101492.06;5102419;28;20416;-78
2023/08/13 09:33:14;;;;;;;10.13;2.83;;;;;;;19.88;85.72;101494.31;5113547;28;20035;-78
2023/08/13 09:35:40;;;;;;;12.65;3.47;;;;;;;19.89;85.33;101485.97;5104520;28;20483;-78
2023/08/13 09:38:06;;;;;;;12.27;3.38;;;;;;;19.95;83.43;101480.91;5106115;28;20088;-78
2023/08/13 09:40:31;;;;;;;16.17;3.63;;;;;;;20.00;86.55;101482.16;5106736;28;20036;-78
2023/08/13 09:42:58;;;;;;;16.67;3.42;;;;;;;20.01;85.29;101477.53;5101833;28;20177;-77
2023/08/13 09:45:27;;;;;;;15.10;3.72;;;;;;;20.07;85.93;101476.88;5104017;28;20053;-78
2023/08/13 09:47:55;;;;;;;16.40;3.65;;;;;;;20.12;86.91;101480.00;5104850;28;20034;-78
2023/08/13 09:50:23;;;;;;;14.35;4.03;;;;;;;20.13;83.08;101470.78;5104756;28;20460;-78
2023/08/13 09:52:49;;;;;;;13.57;4.15;;;;;;;20.16;83.17;101470.50;5102615;28;20036;-78
2023/08/13 09:55:19;;;;;;;12.73;3.17;;;;;;;20.19;83.79;101472.03;5106739;28;20100;-78
2023/08/13 09:57:47;;;;;;;18.05;3.20;;;;;;;20.27;84.47;101473.97;5104945;28;20156;-78
2023/08/13 10:00:13;;;;;;;13.38;3.42;;;;;;;20.30;85.79;101470.91;5103168;28;20078;-78
2023/08/13 10:02:40;;;;;;;16.58;3.90;;;;;;;20.31;80.57;101465.28;5104383;28;20099;-78
2023/08/13 10:05:06;;;;;;;19.63;4.18;;;;;;;20.33;81.07;101462.41;5104148;28;20443;-78
2023/08/13 10:07:32;;;;;;;15.38;4.00;;;;;;;20.38;81.70;101458.16;5099899;28;20093;-78
2023/08/13 10:10:00;;;;;;;14.73;3.75;;;;;;;20.43;80.67;101460.41;5104610;28;20020;-78
2023/08/13 10:12:26;;;;;;;12.63;3.75;;;;;;;20.51;83.05;101468.63;5106243;28;20733;-78
2023/08/13 10:14:51;;;;;;;20.17;3.80;;;;;;;20.59;82.21;101465.09;5109020;28;20429;-78
2023/08/13 10:17:18;;;;;;;18.83;3.75;;;;;;;20.67;81.97;101458.84;5109821;28;20033;-78
2023/08/13 10:19:49;;;;;;;18.20;3.60;;;;;;;20.69;81.53;101456.78;5106055;28;20455;-78
2023/08/13 10:22:32;;;;;;;15.35;3.53;;;;;;;20.70;80.51;101463.97;5107384;28;20031;-78
2023/08/13 10:24:59;;;;;;;13.50;3.50;;;;;;;20.71;79.55;101452.03;5100727;28;20379;-78
2023/08/13 10:27:25;;;;;;;12.05;3.20;;;;;;;20.71;77.30;101460.22;5108467;28;20122;-80
2023/08/13 10:30:09;;;;;;;13.73;3.35;;;;;;;20.71;78.72;101452.03;5103826;28;20073;-74
2023/08/13 10:33:08;;;;;;;19.35;4.10;;;;;;;20.67;82.56;101456.94;5113359;28;20023;-75
2023/08/13 10:35:34;;;;;;;15.27;3.20;;;;;;;20.59;78.91;101457.75;5079655;28;20043;-74
2023/08/13 10:38:01;;;;;;;18.40;3.42;;;;;;;20.58;79.03;101455.19;5103971;28;20020;-75
2023/08/13 10:40:27;;;;;;;13.82;3.85;;;;;;;20.57;77.39;101450.72;5108949;28;20062;-74
2023/08/13 10:42:55;;;;;;;16.33;3.70;;;;;;;20.57;81.16;101450.72;5113863;28;20023;-75
2023/08/13 10:45:25;;;;;;;14.30;3.42;;;;;;;20.57;78.54;101451.59;5110743;28;20020;-74
2023/08/13 10:48:00;;;;;;;14.30;3.30;;;;;;;20.62;79.30;101455.72;5112210;28;20144;-75
2023/08/13 10:50:31;;;;;;;8.80;2.85;;;;;;;20.65;78.92;101447.19;5107806;28;20038;-74
2023/08/13 10:53:19;;;;;;;15.32;3.80;;;;;;;20.76;80.61;101445.06;5104343;28;20055;-75
2023/08/13 10:55:48;;;;;;;11.48;3.30;;;;;;;20.82;78.82;101446.28;5109291;28;20032;-74
2023/08/13 10:58:35;;;;;;;16.53;3.53;;;;;;;20.90;78.69;101448.16;5103556;28;20118;-74
2023/08/13 11:01:19;;;;;;;12.07;3.72;;;;;;;20.95;78.13;101441.19;5103883;28;20047;-74
2023/08/13 11:03:46;;;;;;;10.20;3.55;;;;;;;21.00;76.53;101448.88;5111283;28;20058;-74
2023/08/13 11:06:14;;;;;;;16.75;3.75;;;;;;;21.03;78.15;101443.09;5108019;28;20049;-75
2023/08/13 11:08:40;;;;;;;17.48;3.53;;;;;;;21.10;78.36;101446.00;5103753;28;20486;-74
2023/08/13 11:11:06;;;;;;;14.48;3.53;;;;;;;21.14;77.56;101441.91;5104962;28;20050;-74